KMFR/MFR METAR and TAF weather

Enter ICAO airport designator
Station Type Date Time Source
KMFR METAR 2022/07/03 13:53 UTC NOAA

KMFR 031353Z 00000KT 10SM SCT028 14/11 A2994 RMK AO2 SLP130 T01440111


Station Type Date Time Source
KMFR Decoded METAR 2022/07/03 13:53 UTC NOAA

ROGUE VALLEY INTERNATIONAL AIRPORT, OR, United States (KMFR) 42-23N 122-53W 396M
Jul 03, 2022 - 09:53 AM EDT / 2022.07.03 1353 UTC
Wind: Calm:0
Visibility: 10 mile(s):0
Sky conditions: partly cloudy
Temperature: 57.9 F (14.4 C)
Dew Point: 52.0 F (11.1 C)
Relative Humidity: 80%
Pressure (altimeter): 29.94 in. Hg (1013 hPa)
ob: KMFR 031353Z 00000KT 10SM SCT028 14/11 A2994 RMK AO2 SLP130 T01440111
cycle: 14

Station Type Date Time Source
KMFR TAF 2022/07/03 12:42 UTC NOAA

TAF KMFR 031139Z 0312/0412 VRB03KT P6SM OVC035
FM031700 31005KT P6SM SCT035 SCT050
FM032200 32010KT P6SM BKN100
FM040400 33004KT P6SM VCSH BKN050
FM040600 VRB03KT P6SM -RA SCT025 BKN050

Example: see airport list